createdAt,value
2022-11-26T00:01:20.607Z,5.04
2022-11-26T00:03:49.426Z,4.94
2022-11-26T00:06:19.212Z,5.03
2022-11-26T00:08:46.066Z,4.92
2022-11-26T00:11:15.888Z,4.37
2022-11-26T00:13:42.797Z,4.94
2022-11-26T00:16:14.324Z,4.98
2022-11-26T00:18:43.467Z,5.06
2022-11-26T00:21:18.663Z,5.09
2022-11-26T00:23:46.040Z,5.10
2022-11-26T00:26:19.212Z,5.12
2022-11-26T00:29:00.266Z,5.13
2022-11-26T00:31:28.503Z,5.13
2022-11-26T00:33:55.548Z,5.09
2022-11-26T00:36:27.493Z,4.94
2022-11-26T00:39:03.365Z,4.82
2022-11-26T00:41:38.274Z,4.90
2022-11-26T00:44:17.004Z,4.83
2022-11-26T00:46:44.021Z,4.84
2022-11-26T00:49:10.965Z,4.89
2022-11-26T00:51:38.006Z,4.90
2022-11-26T00:54:05.862Z,4.86
2022-11-26T00:56:37.861Z,4.72
2022-11-26T00:59:05.863Z,4.71
2022-11-26T01:01:33.014Z,4.60
2022-11-26T01:04:00.380Z,4.57
2022-11-26T01:06:34.148Z,4.52
2022-11-26T01:09:02.227Z,4.44
2022-11-26T01:11:29.285Z,4.41
2022-11-26T01:13:56.656Z,4.01
2022-11-26T01:16:35.490Z,3.96
2022-11-26T01:19:03.370Z,4.21
2022-11-26T01:21:31.703Z,4.14
2022-11-26T01:23:58.632Z,4.00
2022-11-26T01:26:28.469Z,4.03
2022-11-26T01:28:55.940Z,4.02
2022-11-26T01:31:26.075Z,3.96
2022-11-26T01:33:54.223Z,3.87
2022-11-26T01:36:32.818Z,3.71
2022-11-26T01:39:20.687Z,3.62
2022-11-26T01:42:07.988Z,3.55
2022-11-26T01:44:37.254Z,3.47
2022-11-26T01:47:21.683Z,3.65
2022-11-26T01:50:26.145Z,3.65
2022-11-26T01:52:55.451Z,3.65
2022-11-26T01:55:22.518Z,3.67
2022-11-26T01:57:50.887Z,3.71
2022-11-26T02:00:17.984Z,3.62
2022-11-26T02:02:45.748Z,3.66
2022-11-26T02:05:22.624Z,3.73
2022-11-26T02:07:50.554Z,3.66
2022-11-26T02:10:17.720Z,3.61
2022-11-26T02:12:45.241Z,3.65
2022-11-26T02:15:12.663Z,3.58
2022-11-26T02:17:44.075Z,3.61
2022-11-26T02:20:23.102Z,3.53
2022-11-26T02:22:49.925Z,3.47
2022-11-26T02:25:27.132Z,3.39
2022-11-26T02:27:57.855Z,3.43
2022-11-26T02:30:30.584Z,3.44
2022-11-26T02:33:18.396Z,3.37
2022-11-26T02:35:49.228Z,3.47
2022-11-26T02:38:22.775Z,3.60
2022-11-26T02:40:50.535Z,3.59
2022-11-26T02:43:18.707Z,3.51
2022-11-26T02:45:54.328Z,3.58
2022-11-26T02:48:28.884Z,3.55
2022-11-26T02:51:00.708Z,3.51
2022-11-26T02:53:31.205Z,3.57
2022-11-26T02:56:09.075Z,3.48
2022-11-26T02:58:36.804Z,3.55
2022-11-26T03:01:09.622Z,3.42
2022-11-26T03:03:43.682Z,3.44
2022-11-26T03:06:13.848Z,3.39
2022-11-26T03:08:43.075Z,3.48
2022-11-26T03:11:10.022Z,3.36
2022-11-26T03:13:37.028Z,3.39
2022-11-26T03:16:04.606Z,3.43
2022-11-26T03:18:31.746Z,3.35
2022-11-26T03:20:58.585Z,3.12
2022-11-26T03:23:27.503Z,3.21
2022-11-26T03:25:54.674Z,3.26
2022-11-26T03:28:21.571Z,3.24
2022-11-26T03:30:52.637Z,3.26
2022-11-26T03:33:20.245Z,3.25
2022-11-26T03:35:48.987Z,3.01
2022-11-26T03:38:17.079Z,3.13
2022-11-26T03:40:44.036Z,3.27
2022-11-26T03:43:11.095Z,3.20
2022-11-26T03:45:38.038Z,3.11
2022-11-26T03:48:05.470Z,3.13
2022-11-26T03:50:32.374Z,3.25
2022-11-26T03:52:59.247Z,3.15
2022-11-26T03:55:26.270Z,3.06
2022-11-26T03:57:53.247Z,3.00
2022-11-26T04:00:20.821Z,3.11
2022-11-26T04:02:47.727Z,3.05
2022-11-26T04:05:14.716Z,2.98
2022-11-26T04:07:41.946Z,2.97
2022-11-26T04:10:09.264Z,2.97
2022-11-26T04:12:36.746Z,2.98
2022-11-26T04:15:04.089Z,3.02
2022-11-26T04:17:31.379Z,3.04
2022-11-26T04:19:58.234Z,3.05
2022-11-26T04:22:25.110Z,3.14
2022-11-26T04:24:52.099Z,3.04
2022-11-26T04:27:19.521Z,3.03
2022-11-26T04:29:46.687Z,2.98
2022-11-26T04:32:13.901Z,2.79
2022-11-26T04:34:40.944Z,3.07
2022-11-26T04:37:08.182Z,3.06
2022-11-26T04:39:36.090Z,3.07
2022-11-26T04:42:02.970Z,3.10
2022-11-26T04:44:30.023Z,3.13
2022-11-26T04:46:56.889Z,3.03
2022-11-26T04:49:23.981Z,3.13
2022-11-26T04:51:51.146Z,3.13
2022-11-26T04:54:18.017Z,3.11
2022-11-26T04:56:45.112Z,3.11
2022-11-26T04:59:12.199Z,3.01
2022-11-26T05:01:39.177Z,3.12
2022-11-26T05:04:06.151Z,3.11
2022-11-26T05:06:33.413Z,2.94
2022-11-26T05:09:00.629Z,3.04
2022-11-26T05:11:27.602Z,3.01
2022-11-26T05:13:54.620Z,3.07
2022-11-26T05:16:21.544Z,3.00
2022-11-26T05:18:48.466Z,3.09
2022-11-26T05:21:15.387Z,2.98
2022-11-26T05:23:42.261Z,3.03
2022-11-26T05:26:09.160Z,3.00
2022-11-26T05:28:36.056Z,3.00
2022-11-26T05:31:04.481Z,3.03
2022-11-26T05:33:31.642Z,2.94
2022-11-26T05:35:58.694Z,3.04
2022-11-26T05:38:25.772Z,3.00
2022-11-26T05:40:52.876Z,2.88
2022-11-26T05:43:20.054Z,2.68
2022-11-26T05:45:47.349Z,2.58
2022-11-26T05:48:14.470Z,2.48
2022-11-26T05:50:41.402Z,2.38
2022-11-26T05:53:08.495Z,2.39
2022-11-26T05:55:35.334Z,2.49
2022-11-26T05:58:02.247Z,2.54
2022-11-26T06:00:29.259Z,2.61
2022-11-26T06:02:56.403Z,2.41
2022-11-26T06:05:23.437Z,2.69
2022-11-26T06:07:50.523Z,2.78
2022-11-26T06:10:17.669Z,2.82
2022-11-26T06:12:44.588Z,2.78
2022-11-26T06:15:11.737Z,2.63
2022-11-26T06:17:38.735Z,2.84
2022-11-26T06:20:06.557Z,2.88
2022-11-26T06:22:38.567Z,2.98
2022-11-26T06:25:08.104Z,3.02
2022-11-26T06:27:36.930Z,2.85
2022-11-26T06:30:05.857Z,3.14
2022-11-26T06:32:32.881Z,3.14
2022-11-26T06:34:59.903Z,3.21
2022-11-26T06:37:27.078Z,3.24
2022-11-26T06:39:54.183Z,3.19
2022-11-26T06:42:21.357Z,3.28
2022-11-26T06:44:48.318Z,3.35
2022-11-26T06:47:15.343Z,3.29
2022-11-26T06:49:42.553Z,3.47
2022-11-26T06:52:09.448Z,3.39
2022-11-26T06:54:36.680Z,3.41
2022-11-26T06:57:04.004Z,3.62
2022-11-26T06:59:30.959Z,3.78
2022-11-26T07:01:58.176Z,3.92
2022-11-26T07:04:25.175Z,3.82
2022-11-26T07:06:52.109Z,4.03
2022-11-26T07:09:19.131Z,4.09
2022-11-26T07:11:50.203Z,4.14
2022-11-26T07:14:18.518Z,3.93
2022-11-26T07:16:45.422Z,3.98
2022-11-26T07:19:14.283Z,3.91
2022-11-26T07:21:41.214Z,3.90
2022-11-26T07:24:08.473Z,3.67
2022-11-26T07:26:35.479Z,3.97
2022-11-26T07:29:02.412Z,4.02
2022-11-26T07:31:29.603Z,3.99
2022-11-26T07:33:57.756Z,4.17
2022-11-26T07:36:27.054Z,4.45
2022-11-26T07:38:59.860Z,4.57
2022-11-26T07:41:28.358Z,4.61
2022-11-26T07:43:55.316Z,4.79
2022-11-26T07:46:24.796Z,4.91
2022-11-26T07:48:51.923Z,4.89
2022-11-26T07:51:24.823Z,4.84
2022-11-26T07:53:52.466Z,4.88
2022-11-26T07:56:19.913Z,5.02
2022-11-26T07:58:47.706Z,4.96
2022-11-26T08:01:19.783Z,4.86
2022-11-26T08:03:48.790Z,5.18
2022-11-26T08:06:19.017Z,4.68
2022-11-26T08:08:46.334Z,5.31
2022-11-26T08:11:20.075Z,5.35
2022-11-26T08:13:47.862Z,5.27
2022-11-26T08:16:15.406Z,5.19
2022-11-26T08:18:43.310Z,5.25
2022-11-26T08:21:10.687Z,5.28
2022-11-26T08:23:38.398Z,5.39
2022-11-26T08:28:59.592Z,5.38
2022-11-26T08:31:28.230Z,5.42
2022-11-26T08:34:03.089Z,5.14
2022-11-26T08:36:31.409Z,5.23
2022-11-26T08:38:59.853Z,5.33
2022-11-26T08:41:27.108Z,5.30
2022-11-26T08:44:09.381Z,5.28
2022-11-26T08:46:38.395Z,5.09
2022-11-26T08:49:07.782Z,4.73
2022-11-26T08:51:34.846Z,5.37
2022-11-26T08:54:02.233Z,5.25
2022-11-26T08:56:29.322Z,5.52
2022-11-26T08:58:56.266Z,5.53
2022-11-26T09:01:28.867Z,5.50
2022-11-26T09:03:58.658Z,5.82
2022-11-26T09:06:26.626Z,5.99
2022-11-26T09:09:12.695Z,5.81
2022-11-26T09:11:42.636Z,6.02
2022-11-26T09:14:10.765Z,6.15
2022-11-26T09:16:38.102Z,6.16
2022-11-26T09:19:06.632Z,6.36
2022-11-26T09:21:35.167Z,6.42
2022-11-26T09:24:02.962Z,6.26
2022-11-26T09:26:34.153Z,6.05
2022-11-26T09:29:01.472Z,5.83
2022-11-26T09:31:29.181Z,5.93
2022-11-26T09:33:58.079Z,5.88
2022-11-26T09:36:24.989Z,5.99
2022-11-26T09:38:56.280Z,6.06
2022-11-26T09:41:48.761Z,5.98
2022-11-26T09:44:26.954Z,6.00
2022-11-26T09:47:13.389Z,6.05
2022-11-26T09:49:52.508Z,6.06
2022-11-26T09:52:22.682Z,5.69
2022-11-26T09:54:56.315Z,5.84
2022-11-26T09:57:40.125Z,5.35
2022-11-26T10:00:21.783Z,5.80
2022-11-26T10:02:53.015Z,5.95
2022-11-26T10:05:37.414Z,5.95
2022-11-26T10:08:14.585Z,6.21
2022-11-26T10:11:13.954Z,6.19
2022-11-26T10:14:04.468Z,6.33
2022-11-26T10:17:07.246Z,6.10
2022-11-26T10:20:02.836Z,6.47
2022-11-26T10:22:57.140Z,6.26
2022-11-26T10:25:28.608Z,6.54
2022-11-26T10:27:57.366Z,6.57
2022-11-26T10:30:31.036Z,6.72
2022-11-26T10:33:02.499Z,6.74
2022-11-26T10:35:29.763Z,6.74
2022-11-26T10:37:57.650Z,6.74
2022-11-26T10:40:27.312Z,6.92
2022-11-26T10:43:08.316Z,7.06
2022-11-26T10:45:55.848Z,6.99
2022-11-26T10:48:31.316Z,7.11
2022-11-26T10:51:06.401Z,7.14
2022-11-26T10:53:54.910Z,7.13
2022-11-26T10:56:47.193Z,7.12
2022-11-26T10:59:25.892Z,7.14
2022-11-26T11:01:57.460Z,7.02
2022-11-26T11:04:30.861Z,7.05
2022-11-26T11:06:58.308Z,7.19
2022-11-26T11:09:36.744Z,7.17
2022-11-26T11:12:23.441Z,7.24
2022-11-26T11:14:51.994Z,7.20
2022-11-26T11:17:39.934Z,7.37
2022-11-26T11:20:29.489Z,7.11
2022-11-26T11:23:18.084Z,7.23
2022-11-26T11:25:56.414Z,7.42
2022-11-26T11:28:26.407Z,7.51
2022-11-26T11:31:04.760Z,7.42
2022-11-26T11:33:32.139Z,7.45
2022-11-26T11:36:03.401Z,7.64
2022-11-26T11:38:34.799Z,7.67
2022-11-26T11:41:05.317Z,7.53
2022-11-26T11:43:35.845Z,7.47
2022-11-26T11:46:13.357Z,7.48
2022-11-26T11:48:43.682Z,7.63
2022-11-26T11:51:35.304Z,7.65
2022-11-26T11:54:12.532Z,7.61
2022-11-26T11:57:14.969Z,7.59
2022-11-26T12:00:29.731Z,7.73
2022-11-26T12:03:43.233Z,7.70
2022-11-26T12:06:15.942Z,7.71
2022-11-26T12:09:07.929Z,7.67
2022-11-26T12:11:44.004Z,7.68
2022-11-26T12:14:32.524Z,7.72
2022-11-26T12:17:06.634Z,7.75
2022-11-26T12:19:52.832Z,7.68
2022-11-26T12:22:32.285Z,7.90
2022-11-26T12:25:03.159Z,7.91
2022-11-26T12:27:42.477Z,7.74
2022-11-26T12:30:22.174Z,7.66
2022-11-26T12:33:25.574Z,7.92
2022-11-26T12:36:01.204Z,7.84
2022-11-26T12:38:35.050Z,7.84
2022-11-26T12:41:08.246Z,8.01
2022-11-26T12:43:48.296Z,8.06
2022-11-26T12:46:52.487Z,8.10
2022-11-26T12:49:51.038Z,8.17
2022-11-26T12:52:29.186Z,8.15
2022-11-26T12:55:03.764Z,8.25
2022-11-26T12:57:37.208Z,7.99
2022-11-26T13:00:15.100Z,8.37
2022-11-26T13:02:45.329Z,8.35
2022-11-26T13:05:20.147Z,8.28
2022-11-26T13:08:02.244Z,8.44
2022-11-26T13:10:54.795Z,8.44
2022-11-26T13:13:58.411Z,8.57
2022-11-26T13:16:37.966Z,8.27
2022-11-26T13:19:19.808Z,8.47
2022-11-26T13:22:05.448Z,8.57
2022-11-26T13:24:58.081Z,8.60
2022-11-26T13:27:28.088Z,8.54
2022-11-26T13:30:18.168Z,8.50
2022-11-26T13:32:59.061Z,8.54
2022-11-26T13:35:47.841Z,8.52
2022-11-26T13:38:21.638Z,8.60
2022-11-26T13:41:10.126Z,8.63
2022-11-26T13:43:50.189Z,8.54
2022-11-26T13:46:31.187Z,8.44
2022-11-26T13:49:15.346Z,8.54
2022-11-26T13:51:53.351Z,8.54
2022-11-26T13:54:23.439Z,8.55
2022-11-26T13:57:13.929Z,8.59
2022-11-26T13:59:53.434Z,8.45
2022-11-26T14:02:32.723Z,8.63
2022-11-26T14:05:03.328Z,8.62
2022-11-26T14:07:30.965Z,8.65
2022-11-26T14:10:00.862Z,8.59
2022-11-26T14:13:02.403Z,8.57
2022-11-26T14:15:57.796Z,8.53
2022-11-26T14:18:50.522Z,8.44
2022-11-26T14:21:22.169Z,8.34
2022-11-26T14:23:52.143Z,8.38
2022-11-26T14:26:22.411Z,8.39
2022-11-26T14:28:49.309Z,8.35
2022-11-26T14:31:23.129Z,8.40
2022-11-26T14:33:54.051Z,8.28
2022-11-26T14:36:25.135Z,8.36
2022-11-26T14:39:12.049Z,8.40
2022-11-26T14:41:42.167Z,8.36
2022-11-26T14:44:15.149Z,8.30
2022-11-26T14:46:45.608Z,8.20
2022-11-26T14:49:18.687Z,8.24
2022-11-26T14:51:47.442Z,8.17
2022-11-26T14:54:33.278Z,8.15
2022-11-26T14:57:06.913Z,8.10
2022-11-26T14:59:34.094Z,8.05
2022-11-26T15:02:03.257Z,7.93
2022-11-26T15:04:40.118Z,7.95
2022-11-26T15:07:07.572Z,7.77
2022-11-26T15:09:36.858Z,7.74
2022-11-26T15:12:16.070Z,7.62
2022-11-26T15:17:49.250Z,7.19
2022-11-26T15:20:18.108Z,7.22
2022-11-26T15:22:51.720Z,7.11
2022-11-26T15:25:22.164Z,7.02
2022-11-26T15:27:59.143Z,6.96
2022-11-26T15:30:30.579Z,6.92
2022-11-26T15:33:00.413Z,6.85
2022-11-26T15:35:28.375Z,6.73
2022-11-26T15:37:55.675Z,6.72
2022-11-26T15:40:31.491Z,6.68
2022-11-26T15:43:04.379Z,6.58
2022-11-26T15:45:55.052Z,6.54
2022-11-26T15:48:53.717Z,6.48
2022-11-26T15:51:27.427Z,6.41
2022-11-26T15:53:58.065Z,6.26
2022-11-26T15:56:30.410Z,6.25
2022-11-26T15:59:00.815Z,6.26
2022-11-26T16:01:32.736Z,6.18
2022-11-26T16:04:04.581Z,6.09
2022-11-26T16:06:40.065Z,6.12
2022-11-26T16:09:12.523Z,6.12
2022-11-26T16:11:56.687Z,6.06
2022-11-26T16:14:32.426Z,5.98
2022-11-26T16:17:08.068Z,5.89
2022-11-26T16:19:37.472Z,5.94
2022-11-26T16:22:06.037Z,5.90
2022-11-26T16:24:42.656Z,5.86
2022-11-26T16:27:20.776Z,5.84
2022-11-26T16:29:48.232Z,5.82
2022-11-26T16:32:16.516Z,5.80
2022-11-26T16:34:44.330Z,5.78
2022-11-26T16:37:27.898Z,5.75
2022-11-26T16:40:04.094Z,5.71
2022-11-26T16:42:32.672Z,5.67
2022-11-26T16:45:03.875Z,5.59
2022-11-26T16:47:36.125Z,5.58
2022-11-26T16:50:03.875Z,5.58
2022-11-26T16:52:30.800Z,5.49
2022-11-26T16:54:57.849Z,5.49
2022-11-26T16:57:27.615Z,5.49
2022-11-26T17:00:02.209Z,5.43
2022-11-26T17:02:29.434Z,5.26
2022-11-26T17:04:56.363Z,5.34
2022-11-26T17:07:30.341Z,5.37
2022-11-26T17:09:57.555Z,5.30
2022-11-26T17:12:25.608Z,5.20
2022-11-26T17:17:25.273Z,5.20
2022-11-26T17:19:52.872Z,5.08
2022-11-26T17:22:20.311Z,5.16
2022-11-26T17:24:47.184Z,5.17
2022-11-26T17:27:16.716Z,5.06
2022-11-26T17:29:45.722Z,5.11
2022-11-26T17:32:20.132Z,5.04
2022-11-26T17:34:48.130Z,5.10
2022-11-26T17:37:19.617Z,5.10
2022-11-26T17:39:46.754Z,5.05
2022-11-26T17:42:13.598Z,5.02
2022-11-26T17:44:40.750Z,4.97
2022-11-26T17:47:17.332Z,5.02
2022-11-26T17:49:45.789Z,4.98
2022-11-26T17:52:13.672Z,4.96
2022-11-26T17:54:41.148Z,4.94
2022-11-26T17:57:09.426Z,4.98
2022-11-26T17:59:36.636Z,4.89
2022-11-26T18:02:04.154Z,4.93
2022-11-26T18:04:31.076Z,4.83
2022-11-26T18:07:08.311Z,4.75
2022-11-26T18:09:35.333Z,4.77
2022-11-26T18:12:03.354Z,4.83
2022-11-26T18:14:30.656Z,4.63
2022-11-26T18:16:57.647Z,4.49
2022-11-26T18:19:26.163Z,4.64
2022-11-26T18:21:53.245Z,4.51
2022-11-26T18:24:20.722Z,4.64
2022-11-26T18:26:47.717Z,4.64
2022-11-26T18:29:14.624Z,4.61
2022-11-26T18:31:41.631Z,4.62
2022-11-26T18:34:08.584Z,4.63
2022-11-26T18:36:35.566Z,4.60
2022-11-26T18:39:04.886Z,4.75
2022-11-26T18:41:32.268Z,4.78
2022-11-26T18:43:59.124Z,4.67
2022-11-26T18:46:26.164Z,4.77
2022-11-26T18:48:53.099Z,4.77
2022-11-26T18:51:20.172Z,4.69
2022-11-26T18:53:47.471Z,4.54
2022-11-26T18:56:19.444Z,4.75
2022-11-26T18:58:46.477Z,4.76
2022-11-26T19:01:18.902Z,4.75
2022-11-26T19:03:46.375Z,4.76
2022-11-26T19:06:22.546Z,4.74
2022-11-26T19:08:50.902Z,4.67
2022-11-26T19:11:20.757Z,4.73
2022-11-26T19:13:48.340Z,4.71
2022-11-26T19:16:17.326Z,4.59
2022-11-26T19:18:45.741Z,4.67
2022-11-26T19:21:29.263Z,4.69
2022-11-26T19:23:58.576Z,4.60
2022-11-26T19:26:25.429Z,4.48
2022-11-26T19:28:52.773Z,4.63
2022-11-26T19:31:22.451Z,4.62
2022-11-26T19:34:01.124Z,4.61
2022-11-26T19:36:29.806Z,4.18
2022-11-26T19:38:58.597Z,4.51
2022-11-26T19:41:26.235Z,4.51
2022-11-26T19:43:53.540Z,4.54
2022-11-26T19:46:24.209Z,4.57
2022-11-26T19:48:52.829Z,4.61
2022-11-26T19:51:21.645Z,4.42
2022-11-26T19:53:50.986Z,4.62
2022-11-26T19:56:20.951Z,4.49
2022-11-26T19:58:48.666Z,4.58
2022-11-26T20:01:18.834Z,4.39
2022-11-26T20:03:46.027Z,4.54
2022-11-26T20:06:19.390Z,4.44
2022-11-26T20:08:47.648Z,4.45
2022-11-26T20:11:16.421Z,4.47
2022-11-26T20:13:45.256Z,4.32
2022-11-26T20:16:17.251Z,4.39
2022-11-26T20:18:44.457Z,4.26
2022-11-26T20:21:14.454Z,4.43
2022-11-26T20:23:42.271Z,4.41
2022-11-26T20:26:19.728Z,4.49
2022-11-26T20:28:48.037Z,4.43
2022-11-26T20:31:20.695Z,4.13
2022-11-26T20:33:51.520Z,4.65
2022-11-26T20:36:21.002Z,4.64
2022-11-26T20:38:52.572Z,4.56
2022-11-26T20:41:20.185Z,4.57
2022-11-26T20:43:47.274Z,4.38
2022-11-26T20:46:34.364Z,4.55
2022-11-26T20:49:01.411Z,4.56
2022-11-26T20:51:28.486Z,4.53
2022-11-26T20:53:59.261Z,4.60
2022-11-26T20:56:26.608Z,4.51
2022-11-26T20:58:54.047Z,4.58
2022-11-26T21:01:25.458Z,4.57
2022-11-26T21:03:53.796Z,4.46
2022-11-26T21:06:29.050Z,4.50
2022-11-26T21:08:59.782Z,4.43
2022-11-26T21:11:27.538Z,4.36
2022-11-26T21:13:54.958Z,4.34
2022-11-26T21:16:23.348Z,4.24
2022-11-26T21:18:53.134Z,3.73
2022-11-26T21:21:20.550Z,4.32
2022-11-26T21:23:47.507Z,4.17
2022-11-26T21:26:19.858Z,4.08
2022-11-26T21:28:55.376Z,4.14
2022-11-26T21:31:23.250Z,4.14
2022-11-26T21:34:03.345Z,4.12
2022-11-26T21:36:31.938Z,4.11
2022-11-26T21:38:58.951Z,4.13
2022-11-26T21:41:26.654Z,3.96
2022-11-26T21:43:54.187Z,4.07
2022-11-26T21:46:26.365Z,4.08
2022-11-26T21:48:55.059Z,3.98
2022-11-26T21:51:23.988Z,3.82
2022-11-26T21:53:52.983Z,4.08
2022-11-26T21:56:22.647Z,4.05
2022-11-26T21:58:50.598Z,4.00
2022-11-26T22:01:31.556Z,4.06
2022-11-26T22:04:02.396Z,4.00
2022-11-26T22:06:31.316Z,3.95
2022-11-26T22:08:58.596Z,3.96
2022-11-26T22:11:31.493Z,3.92
2022-11-26T22:13:58.825Z,4.00
2022-11-26T22:16:27.279Z,3.99
2022-11-26T22:18:56.386Z,3.98
2022-11-26T22:21:26.366Z,3.95
2022-11-26T22:23:53.696Z,3.60
2022-11-26T22:26:21.438Z,3.79
2022-11-26T22:28:49.715Z,3.76
2022-11-26T22:31:31.353Z,3.76
2022-11-26T22:34:04.848Z,3.71
2022-11-26T22:36:32.804Z,3.48
2022-11-26T22:39:01.939Z,3.36
2022-11-26T22:41:29.108Z,3.32
2022-11-26T22:43:57.763Z,3.24
2022-11-26T22:46:24.836Z,3.17
2022-11-26T22:48:57.411Z,3.15
2022-11-26T22:51:25.627Z,2.95
2022-11-26T22:53:57.355Z,3.09
2022-11-26T22:56:25.563Z,3.00
2022-11-26T22:58:52.734Z,2.98
2022-11-26T23:01:26.725Z,2.93
2022-11-26T23:03:55.030Z,2.87
2022-11-26T23:06:24.196Z,2.91
2022-11-26T23:08:52.241Z,3.00
2022-11-26T23:11:26.758Z,2.98
2022-11-26T23:13:55.042Z,2.93
2022-11-26T23:16:24.704Z,2.80
2022-11-26T23:18:53.912Z,2.73
2022-11-26T23:21:23.670Z,2.67
2022-11-26T23:23:51.414Z,2.66
2022-11-26T23:26:26.855Z,2.57
2022-11-26T23:28:59.223Z,2.43
2022-11-26T23:31:28.754Z,2.45
2022-11-26T23:33:55.816Z,2.53
2022-11-26T23:36:23.698Z,2.34
2022-11-26T23:38:50.586Z,2.40
2022-11-26T23:41:17.861Z,2.47
2022-11-26T23:43:45.490Z,2.59
2022-11-26T23:46:28.284Z,2.65
2022-11-26T23:48:55.864Z,2.63
2022-11-26T23:51:25.424Z,2.65
2022-11-26T23:53:53.172Z,2.64
2022-11-26T23:56:26.144Z,2.45
2022-11-26T23:58:55.613Z,2.38
